Terminal Aerodrome Forecast
Issued by NWS Mobile, AL

Home | Current Version | Previous Version | Text Only | Print | Product List | Glossary On
Versions: 1 2 3 4 5 6 7 8 9 10 11 12 13 14 15 16 17 18 19 20 21 22 23 24 25 26 27 28 29 30 31 32 33 34 35 36 37
000
FTUS44 KMOB 190418 AAA
TAFPNS
TAF AMD
KPNS 190418Z 1904/1924 13004KT P6SM BKN004
      TEMPO 1904/1906 1/2SM FG OVC002
     FM190600 13004KT 1/4SM FG OVC002
     FM191400 12006KT 5SM BR OVC020=

USA.gov is the U.S. government's official web portal to all federal, state and local government web resources and services.